Portada
METAR-TAF:

METAR-TAF

Aeroports :

Chiang Mai, Tailàndia

latitud: 18-47N, longitud: 098-59E, altitud: 312 m

Observació

L'informe es va fer fa 12 minuts, a les 18:00 UTC
Vent calma
Temperatura 25°C
Humitat 89%
Pressió 1009 hPa
Visibilitat 10 km o més
Escasses núvols a una alçada de 3500 ft

METAR: VTCC 281800Z 00000KT 9999 FEW035 25/23 Q1009 NOSIG

Hora: 01:12 (18:12 UTC)

Pronòstic

L'informe es va fer fa 1 hora i 12 minuts, a les 17:00 UTC
Pronòstic vàlid del 28 a les 18 UTC al 29 a les 24 UTC
Vent 5 kt del Sud/Sud-Est
Visibilitat 10 km o més
Núvols disperses a una alçada de 3500 ft
Temporalment
l' 29 a les 08 UTC al 29 a les 14 UTC
Vent 15 kt del Est/Sud-Est amb ràfegues de 25 kt
Visibilitat: 4000 m
Escasses núvols a una alçada de 2500 ft, Cumulonimbus.
Cel ennuvolat a una alçada de 3000 ft
tempesta, pluja

TAF: VTCC 281700Z 2818/2924 16005KT 9999 SCT035 TEMPO 2908/2914 11015G25KT 4000 TSRA FEW025CB BKN030

Observacions i pronòstics meteorològics de més de 4000 aeroports (METAR i TAF).

Les estacions disponibles són els punts grocs i vermells al mapa.

Posi el ratolí al punt desitjat per veure el nom de l'estació.

Feu clic per veure les observacions i els pronòstics meteorològics.

Per canviar el mapa: feu clic els botons verds amb una creu de color negre per apropar; al botó verd amb un guió per allunyar la imatge; o en les fletxes verdes per a mapes adjacents.


METAR-TAF: